Time;durP1;ratioP1;P1;durP2;ratioP2;P2;SDS_P1;SDS_P2;PMS_P1;PMS_P2;Temp;Humidity;BMP_temperature;BMP_pressure;BME280_temperature;BME280_humidity;BME280_pressure;Samples;Min_cycle;Max_cycle;Signal;HPM_P1;HPM_P2
2023/05/27 00:00:32;;;;;;;19.38;12.80;;;;;;;16.39;75.91;95333.06;5068243;28;20033;-78
2023/05/27 00:03:00;;;;;;;25.02;13.57;;;;;;;16.27;75.89;95300.69;5069430;28;20055;-78
2023/05/27 00:05:25;;;;;;;17.00;13.07;;;;;;;16.38;76.30;95316.22;5070732;28;20120;-78
2023/05/27 00:07:51;;;;;;;20.70;14.23;;;;;;;16.33;75.67;95304.81;5070239;28;20111;-78
2023/05/27 00:10:16;;;;;;;28.25;14.73;;;;;;;16.52;75.94;95321.47;5068812;28;20040;-78
2023/05/27 00:12:42;;;;;;;23.67;14.57;;;;;;;16.31;76.11;95282.94;5070918;28;20093;-78
2023/05/27 00:15:08;;;;;;;19.83;13.77;;;;;;;16.43;76.00;95293.88;5068536;28;20097;-78
2023/05/27 00:17:34;;;;;;;26.63;14.25;;;;;;;16.37;76.45;95290.53;5068669;28;20491;-79
2023/05/27 00:20:06;;;;;;;22.92;13.65;;;;;;;16.54;76.89;95313.94;5068848;28;20032;-78
2023/05/27 00:22:32;;;;;;;;;;;;;;;16.66;76.63;95330.25;5069014;28;20024;-78
2023/05/27 00:24:57;;;;;;;15.23;11.35;;;;;;;16.44;76.61;95280.19;5068529;28;19927;-78
2023/05/27 00:27:23;;;;;;;16.42;11.00;;;;;;;16.67;76.09;95302.38;5070059;28;20420;-78
2023/05/27 00:29:48;;;;;;;20.88;10.10;;;;;;;16.60;76.10;95283.25;5070116;28;20044;-78
2023/05/27 00:32:13;;;;;;;10.07;8.25;;;;;;;16.81;75.22;95318.34;5068667;28;20098;-78
2023/05/27 00:34:39;;;;;;;11.85;8.63;;;;;;;16.81;74.83;95313.78;5068795;28;20123;-78
2023/05/27 00:37:06;;;;;;;11.55;8.43;;;;;;;16.80;75.12;95308.72;5068359;28;20051;-78
2023/05/27 00:39:31;;;;;;;13.75;6.97;;;;;;;16.45;75.47;95251.53;5068627;28;20071;-78
2023/05/27 00:41:57;;;;;;;7.55;6.32;;;;;;;16.35;75.20;95238.41;5067357;28;20063;-78
2023/05/27 00:44:23;;;;;;;7.05;5.40;;;;;;;16.78;75.32;95302.91;5068348;28;20439;-78
2023/05/27 00:46:48;;;;;;;9.10;5.43;;;;;;;16.51;75.08;95283.22;5066918;28;20075;-78
2023/05/27 00:49:14;;;;;;;14.85;6.20;;;;;;;16.59;75.01;95303.88;5068597;28;20036;-78
2023/05/27 00:51:40;;;;;;;12.75;6.68;;;;;;;16.37;75.00;95295.09;5068093;28;20044;-78
2023/05/27 00:54:08;;;;;;;12.07;5.88;;;;;;;15.95;75.70;95248.25;5068386;28;20028;-78
2023/05/27 00:56:34;;;;;;;13.00;6.60;;;;;;;16.31;75.79;95282.94;5069876;28;20039;-78
2023/05/27 00:59:00;;;;;;;9.57;6.53;;;;;;;15.81;76.08;95192.16;5068883;28;20033;-78
2023/05/27 01:01:25;;;;;;;9.30;6.80;;;;;;;16.40;76.90;95278.44;5068578;28;20047;-79
2023/05/27 01:03:52;;;;;;;7.35;6.03;;;;;;;16.44;77.19;95279.41;5068109;28;20045;-79
2023/05/27 01:06:18;;;;;;;10.18;6.45;;;;;;;16.47;77.02;95281.47;5067967;28;20491;-79
2023/05/27 01:09:05;;;;;;;8.25;6.40;;;;;;;16.48;76.46;95275.78;5067953;28;20101;-79
2023/05/27 01:11:51;;;;;;;7.78;5.65;;;;;;;16.21;75.86;95225.91;5054453;28;20072;-79
2023/05/27 01:14:18;;;;;;;10.52;6.13;;;;;;;16.33;76.34;95243.28;5068699;28;20040;-79
2023/05/27 01:16:46;;;;;;;10.57;5.72;;;;;;;16.30;76.59;95227.84;5069777;28;20036;-79
2023/05/27 01:19:14;;;;;;;8.32;5.35;;;;;;;16.47;76.33;95252.81;5067595;28;20043;-79
2023/05/27 01:21:44;;;;;;;10.63;5.57;;;;;;;16.27;76.55;95210.50;5069275;28;20040;-79
2023/05/27 01:24:10;;;;;;;5.40;4.03;;;;;;;16.30;76.38;95215.25;5069088;28;20174;-79
2023/05/27 01:26:36;;;;;;;8.32;4.60;;;;;;;16.47;77.25;95233.28;5068252;28;20359;-79
2023/05/27 01:29:03;;;;;;;6.85;4.10;;;;;;;16.52;76.94;95230.47;5068886;28;20042;-79
2023/05/27 01:31:41;;;;;;;5.22;3.70;;;;;;;16.48;76.38;95216.09;5069819;28;20505;-79
2023/05/27 01:34:14;;;;;;;5.22;4.15;;;;;;;16.42;76.80;95212.00;5068157;28;20067;-79
2023/05/27 01:36:51;;;;;;;4.22;3.20;;;;;;;16.15;77.38;95165.63;5063502;28;20044;-79
2023/05/27 01:39:17;;;;;;;6.47;3.67;;;;;;;16.52;77.15;95219.75;5066884;28;20140;-79
2023/05/27 01:41:43;;;;;;;5.80;3.85;;;;;;;16.30;76.63;95193.84;5062516;28;20566;-79
2023/05/27 01:44:10;;;;;;;4.70;3.67;;;;;;;16.50;76.80;95211.22;5065378;28;20138;-79
2023/05/27 01:46:36;;;;;;;4.47;3.50;;;;;;;16.52;77.08;95211.72;5068156;28;20044;-79
2023/05/27 01:49:02;;;;;;;8.00;4.05;;;;;;;16.31;76.85;95181.25;5067923;28;20028;-79
2023/05/27 01:51:28;;;;;;;6.03;3.90;;;;;;;16.41;77.27;95205.06;5067577;28;20040;-79
2023/05/27 01:53:53;;;;;;;6.95;4.70;;;;;;;16.51;77.25;95227.00;5067728;28;20020;-79
2023/05/27 01:56:18;;;;;;;6.70;4.70;;;;;;;16.35;77.60;95208.97;5047686;28;20039;-79
2023/05/27 01:58:44;;;;;;;5.45;4.38;;;;;;;16.26;77.64;95192.88;5067855;28;20227;-78
2023/05/27 02:01:09;;;;;;;8.13;4.60;;;;;;;16.38;77.23;95211.03;5071437;28;20044;-77
2023/05/27 02:03:35;;;;;;;9.18;4.38;;;;;;;16.22;77.38;95186.56;5074787;28;20067;-76
2023/05/27 02:06:00;;;;;;;7.78;4.72;;;;;;;16.31;77.69;95198.09;5074544;28;20040;-77
2023/05/27 02:08:27;;;;;;;10.93;4.60;;;;;;;16.26;77.60;95195.53;5075073;28;20064;-76
2023/05/27 02:10:53;;;;;;;7.45;4.47;;;;;;;16.27;77.22;95189.09;5075590;28;20414;-76
2023/05/27 02:13:18;;;;;;;9.75;5.28;;;;;;;16.22;77.02;95194.59;5075046;28;20036;-76
2023/05/27 02:15:43;;;;;;;10.00;4.43;;;;;;;16.23;77.38;95195.38;5075533;28;20029;-77
2023/05/27 02:18:09;;;;;;;8.07;4.35;;;;;;;16.40;77.27;95236.38;5060116;28;20040;-77
2023/05/27 02:20:35;;;;;;;6.00;4.25;;;;;;;16.23;76.52;95203.41;5073785;28;20055;-77
2023/05/27 02:23:06;;;;;;;6.50;3.97;;;;;;;15.96;76.55;95170.38;5074360;28;20388;-77
2023/05/27 02:25:31;;;;;;;10.95;4.38;;;;;;;16.10;76.64;95195.16;5075451;28;20442;-76
2023/05/27 02:27:56;;;;;;;7.05;4.90;;;;;;;16.29;77.30;95228.94;5075182;28;20037;-77
2023/05/27 02:30:22;;;;;;;10.93;5.78;;;;;;;16.30;77.99;95235.88;5071994;28;20025;-78
2023/05/27 02:32:47;;;;;;;10.48;5.30;;;;;;;16.32;78.35;95239.84;5069065;28;20043;-77
2023/05/27 02:35:14;;;;;;;8.27;5.90;;;;;;;16.03;78.10;95202.03;5073891;28;20410;-77
2023/05/27 02:37:40;;;;;;;7.38;5.60;;;;;;;16.28;78.12;95235.38;5065555;28;20057;-76
2023/05/27 02:40:09;;;;;;;14.52;6.70;;;;;;;15.93;78.58;95187.06;5070763;28;20043;-77
2023/05/27 02:42:34;;;;;;;8.63;5.55;;;;;;;16.15;78.56;95212.97;5071039;28;20031;-77
2023/05/27 02:45:00;;;;;;;9.35;7.15;;;;;;;16.11;78.76;95242.22;5074919;28;20410;-76
2023/05/27 02:47:25;;;;;;;10.60;6.40;;;;;;;15.90;78.42;95176.19;5073897;28;20044;-76
2023/05/27 02:49:51;;;;;;;7.82;6.13;;;;;;;16.28;78.03;95243.41;5073535;28;20499;-77
2023/05/27 02:52:16;;;;;;;12.98;6.38;;;;;;;16.17;78.25;95216.16;5073165;28;20412;-77
2023/05/27 02:54:41;;;;;;;8.38;6.50;;;;;;;16.28;78.27;95236.19;5067083;28;20025;-77
2023/05/27 02:57:07;;;;;;;11.25;6.40;;;;;;;15.92;77.78;95187.38;5071042;28;20024;-76
2023/05/27 02:59:32;;;;;;;10.75;6.45;;;;;;;16.13;77.37;95237.38;5073715;28;20040;-76
2023/05/27 03:01:58;;;;;;;10.32;6.50;;;;;;;15.95;77.14;95208.13;5068368;28;20072;-77
2023/05/27 03:04:23;;;;;;;9.32;7.00;;;;;;;16.08;77.99;95207.28;5069897;28;20514;-76
2023/05/27 03:06:49;;;;;;;12.73;6.97;;;;;;;16.04;77.89;95208.97;5073796;28;20174;-76
2023/05/27 03:09:14;;;;;;;12.95;7.35;;;;;;;15.79;78.16;95168.41;5075162;28;20048;-76
2023/05/27 03:11:40;;;;;;;9.45;7.20;;;;;;;16.23;78.53;95225.63;5062248;28;20032;-76
2023/05/27 03:14:05;;;;;;;9.32;6.55;;;;;;;15.98;78.74;95189.59;5058621;28;20025;-76
2023/05/27 03:16:31;;;;;;;9.43;6.35;;;;;;;16.33;78.40;95227.22;5068326;28;20043;-76
2023/05/27 03:18:56;;;;;;;11.60;6.80;;;;;;;16.27;78.39;95223.09;5074764;28;20120;-76
2023/05/27 03:21:22;;;;;;;8.88;6.53;;;;;;;16.35;78.68;95233.06;5066352;28;20063;-77
2023/05/27 03:23:47;;;;;;;8.25;6.28;;;;;;;16.31;78.53;95221.41;5070259;28;20407;-77
2023/05/27 03:26:13;;;;;;;13.50;7.30;;;;;;;16.30;78.64;95231.31;5064525;28;20047;-77
2023/05/27 03:28:38;;;;;;;9.30;6.40;;;;;;;16.18;78.31;95212.34;5073773;28;20060;-77
2023/05/27 03:31:05;;;;;;;12.93;7.15;;;;;;;16.13;78.30;95196.44;5072858;28;20038;-76
2023/05/27 03:33:31;;;;;;;19.05;8.70;;;;;;;16.33;77.83;95241.38;5072379;28;20063;-77
2023/05/27 03:35:56;;;;;;;13.35;8.80;;;;;;;16.08;77.55;95205.41;5074544;28;20028;-76
2023/05/27 03:38:22;;;;;;;16.48;10.43;;;;;;;16.33;77.91;95236.03;5073065;28;20036;-76
2023/05/27 03:40:47;;;;;;;15.77;11.18;;;;;;;16.12;78.32;95211.69;5065931;28;20041;-76
2023/05/27 03:43:12;;;;;;;16.85;12.10;;;;;;;16.36;77.99;95253.38;5072207;28;20044;-76
2023/05/27 03:45:38;;;;;;;17.05;11.88;;;;;;;16.09;77.96;95211.53;5073085;28;20456;-77
2023/05/27 03:48:03;;;;;;;16.83;11.38;;;;;;;16.15;78.25;95234.38;5063625;28;20530;-76
2023/05/27 03:50:29;;;;;;;19.25;12.48;;;;;;;16.36;78.33;95253.38;5073113;28;20043;-76
2023/05/27 03:52:54;;;;;;;19.45;12.55;;;;;;;16.20;78.34;95218.97;5073576;28;20074;-76
2023/05/27 03:55:22;;;;;;;16.80;12.18;;;;;;;16.24;78.58;95248.59;5063770;28;20044;-76
2023/05/27 03:57:48;;;;;;;21.95;12.82;;;;;;;16.26;77.91;95251.75;5072825;28;20052;-76
2023/05/27 04:00:14;;;;;;;16.20;11.25;;;;;;;16.03;77.75;95224.22;5072567;28;20032;-76
2023/05/27 04:02:40;;;;;;;22.98;11.80;;;;;;;16.13;77.43;95223.19;5072032;28;20582;-76
2023/05/27 04:05:05;;;;;;;15.73;11.88;;;;;;;16.16;78.14;95228.72;5069856;28;20028;-76
2023/05/27 04:07:31;;;;;;;16.05;12.02;;;;;;;16.26;78.98;95251.75;5066343;28;20078;-77
2023/05/27 04:09:57;;;;;;;15.38;10.95;;;;;;;16.08;78.52;95215.31;5072386;28;20418;-76
2023/05/27 04:12:23;;;;;;;19.35;11.90;;;;;;;16.10;78.22;95231.81;5074355;28;20032;-76
2023/05/27 04:14:49;;;;;;;22.90;12.13;;;;;;;16.30;78.58;95250.03;5065829;28;20120;-76
2023/05/27 04:17:14;;;;;;;18.42;11.15;;;;;;;16.13;78.45;95217.84;5071075;28;20058;-76
2023/05/27 04:19:40;;;;;;;20.83;11.40;;;;;;;16.38;78.03;95251.19;5063328;28;20075;-76
2023/05/27 04:22:06;;;;;;;25.30;13.45;;;;;;;16.15;78.00;95215.66;5072244;28;20052;-76
2023/05/27 04:24:32;;;;;;;29.95;11.73;;;;;;;15.87;77.87;95150.81;5063227;28;20044;-76
2023/05/27 04:26:57;;;;;;;17.52;11.35;;;;;;;16.61;77.64;95246.59;5062957;28;20032;-76
2023/05/27 04:29:22;;;;;;;22.45;12.43;;;;;;;16.36;76.85;95213.22;5071893;28;20032;-76
2023/05/27 04:31:48;;;;;;;18.98;12.00;;;;;;;16.31;77.73;95256.19;5072076;28;20469;-76
2023/05/27 04:34:14;;;;;;;17.77;11.48;;;;;;;16.41;77.56;95261.25;5071820;28;20024;-76
2023/05/27 04:36:39;;;;;;;16.42;12.23;;;;;;;16.47;77.76;95260.84;5072958;28;20035;-76
2023/05/27 04:39:05;;;;;;;25.40;11.73;;;;;;;16.44;76.92;95218.63;5072721;28;20036;-76
2023/05/27 04:41:32;;;;;;;20.90;11.43;;;;;;;16.08;77.21;95224.13;5063910;28;20050;-77
2023/05/27 04:44:00;;;;;;;16.77;11.60;;;;;;;16.13;77.84;95221.31;5063983;28;20032;-76
2023/05/27 04:46:26;;;;;;;19.25;11.63;;;;;;;16.09;77.10;95225.72;5070796;28;20028;-76
2023/05/27 04:48:55;;;;;;;23.42;12.18;;;;;;;16.48;76.83;95269.63;5073065;28;20039;-77
2023/05/27 04:51:21;;;;;;;15.93;11.70;;;;;;;16.54;76.69;95255.03;5071834;28;20024;-77
2023/05/27 04:53:50;;;;;;;23.67;11.50;;;;;;;16.29;76.69;95224.38;5065525;28;20124;-77
2023/05/27 04:56:17;;;;;;;24.10;12.23;;;;;;;16.69;76.46;95257.34;5071292;28;20032;-76
2023/05/27 04:58:49;;;;;;;22.33;11.20;;;;;;;16.08;76.16;95204.59;5069611;28;20025;-76
2023/05/27 05:01:18;;;;;;;24.17;10.35;;;;;;;16.18;78.02;95263.19;5063260;28;20035;-76
2023/05/27 05:03:52;;;;;;;19.80;11.00;;;;;;;15.61;79.63;95246.13;5066047;28;20523;-76
2023/05/27 05:06:19;;;;;;;18.95;10.05;;;;;;;15.43;79.19;95248.63;5063521;28;20029;-76
2023/05/27 05:08:44;;;;;;;15.95;9.05;;;;;;;15.29;79.21;95228.41;5071669;28;20035;-77
2023/05/27 05:11:10;;;;;;;14.82;9.45;;;;;;;15.48;79.40;95244.28;5072017;28;20127;-76
2023/05/27 05:13:35;;;;;;;16.63;9.80;;;;;;;15.77;80.64;95250.84;5070638;28;20050;-76
2023/05/27 05:16:01;;;;;;;21.63;9.75;;;;;;;15.72;78.46;95223.41;5067986;28;20093;-77
2023/05/27 05:18:26;;;;;;;17.75;9.05;;;;;;;15.52;77.01;95243.38;5068535;28;20451;-76
2023/05/27 05:20:51;;;;;;;12.68;8.38;;;;;;;15.34;78.01;95255.00;5070383;28;20060;-76
2023/05/27 05:23:18;;;;;;;17.38;8.45;;;;;;;14.87;78.92;95201.00;5070793;28;20020;-76
2023/05/27 05:25:43;;;;;;;11.45;7.75;;;;;;;15.53;78.72;95276.22;5070877;28;20048;-76
2023/05/27 05:28:09;;;;;;;9.57;6.55;;;;;;;15.73;78.04;95281.13;5070643;28;20036;-77
2023/05/27 05:30:34;;;;;;;17.10;8.40;;;;;;;15.61;77.89;95248.81;5065708;28;20074;-77
2023/05/27 05:33:00;;;;;;;11.55;7.63;;;;;;;15.84;78.02;95274.47;5071136;28;20037;-76
2023/05/27 05:35:25;;;;;;;11.07;7.43;;;;;;;15.73;76.90;95244.50;5065671;28;20024;-77
2023/05/27 05:37:51;;;;;;;10.45;7.25;;;;;;;15.83;77.36;95265.66;5066208;28;20055;-77
2023/05/27 05:40:16;;;;;;;15.23;7.28;;;;;;;15.40;77.24;95221.75;5071325;28;20036;-77
2023/05/27 05:42:42;;;;;;;10.70;7.10;;;;;;;15.91;77.01;95266.81;5066842;28;20084;-77
2023/05/27 05:45:08;;;;;;;16.35;7.70;;;;;;;15.98;76.89;95263.69;5070809;28;20044;-77
2023/05/27 05:47:33;;;;;;;15.90;8.18;;;;;;;15.93;75.71;95266.50;5070877;28;20119;-77
2023/05/27 05:49:58;;;;;;;12.10;7.45;;;;;;;16.01;76.46;95279.94;5072057;28;20041;-77
2023/05/27 05:52:24;;;;;;;13.35;8.45;;;;;;;15.97;76.99;95270.94;5071275;28;20024;-77
2023/05/27 05:54:50;;;;;;;16.88;8.80;;;;;;;16.06;77.81;95292.41;5058740;28;20036;-77
2023/05/27 05:57:15;;;;;;;17.05;8.00;;;;;;;16.14;78.76;95286.31;5070298;28;20060;-77
2023/05/27 05:59:41;;;;;;;15.07;8.75;;;;;;;15.99;77.81;95239.34;5071308;28;20075;-76
2023/05/27 06:02:07;;;;;;;19.27;9.07;;;;;;;16.02;76.61;95262.00;5050179;28;20392;-75
2023/05/27 06:04:32;;;;;;;14.02;8.35;;;;;;;16.30;76.29;95295.53;5062941;28;20028;-77
2023/05/27 06:06:58;;;;;;;13.63;8.80;;;;;;;15.83;75.78;95232.78;5071210;28;20183;-76
2023/05/27 06:09:24;;;;;;;17.65;9.18;;;;;;;16.21;77.36;95284.00;5071743;28;20088;-76
2023/05/27 06:11:50;;;;;;;23.13;8.90;;;;;;;16.24;76.57;95255.84;5072938;28;20734;-77
2023/05/27 06:14:15;;;;;;;16.23;9.13;;;;;;;16.49;77.05;95292.63;5070962;28;20024;-76
2023/05/27 06:16:41;;;;;;;20.90;9.48;;;;;;;16.63;75.20;95287.25;5070589;28;20546;-77
2023/05/27 06:19:06;;;;;;;20.30;10.20;;;;;;;16.37;76.36;95246.94;5071928;28;20033;-76
2023/05/27 06:21:32;;;;;;;14.55;9.75;;;;;;;16.66;76.87;95284.72;5070401;28;20111;-77
2023/05/27 06:23:59;;;;;;;31.85;10.00;;;;;;;16.28;75.45;95216.66;5070465;28;20053;-76
2023/05/27 06:26:24;;;;;;;16.50;9.55;;;;;;;16.12;75.14;95205.56;5072444;28;20028;-76
2023/05/27 06:28:50;;;;;;;14.82;8.93;;;;;;;16.73;75.05;95269.00;5069253;28;20485;-77
2023/05/27 06:31:15;;;;;;;13.05;8.95;;;;;;;16.41;74.85;95298.72;5070096;28;20115;-77
2023/05/27 06:33:41;;;;;;;16.13;9.57;;;;;;;16.53;75.76;95289.06;5072000;28;20040;-76
2023/05/27 06:36:07;;;;;;;21.38;10.73;;;;;;;16.75;77.36;95306.19;5066607;28;20048;-77
2023/05/27 06:38:32;;;;;;;29.95;11.20;;;;;;;16.92;76.12;95282.94;5068422;28;20039;-77
2023/05/27 06:40:58;;;;;;;18.77;9.73;;;;;;;16.85;74.96;95274.56;5071252;28;20094;-76
2023/05/27 06:43:23;;;;;;;18.27;9.65;;;;;;;16.91;73.51;95316.19;5071542;28;20028;-77
2023/05/27 06:45:48;;;;;;;15.75;8.68;;;;;;;17.02;73.41;95300.59;5070371;28;20039;-77
2023/05/27 06:48:14;;;;;;;22.98;9.75;;;;;;;17.01;73.37;95276.81;5072234;28;20427;-77
2023/05/27 06:50:39;;;;;;;21.00;9.90;;;;;;;16.95;73.54;95273.47;5071465;28;20033;-77
2023/05/27 06:53:05;;;;;;;15.95;8.80;;;;;;;17.09;73.28;95284.09;5067195;28;20029;-77
2023/05/27 06:55:30;;;;;;;23.05;10.68;;;;;;;17.03;73.52;95277.28;5067062;28;20084;-76
2023/05/27 06:57:56;;;;;;;12.07;8.85;;;;;;;17.34;72.86;95321.66;5073952;28;20036;-76
2023/05/27 07:00:21;;;;;;;23.45;9.85;;;;;;;17.24;74.20;95305.84;5069063;28;20418;-77
2023/05/27 07:02:46;;;;;;;18.00;10.27;;;;;;;17.25;72.29;95288.69;5073779;28;20039;-77
2023/05/27 07:05:12;;;;;;;23.27;10.07;;;;;;;17.52;72.31;95290.31;5069415;28;20504;-77
2023/05/27 07:07:38;;;;;;;10.43;8.20;;;;;;;17.55;71.42;95308.44;5074480;28;20585;-77
2023/05/27 07:10:03;;;;;;;15.23;8.68;;;;;;;17.05;72.53;95296.53;5073309;28;20036;-76
2023/05/27 07:12:28;;;;;;;19.08;9.70;;;;;;;17.39;72.48;95309.22;5072928;28;20487;-77
2023/05/27 07:14:54;;;;;;;19.38;9.52;;;;;;;17.69;71.53;95306.47;5073324;28;20648;-77
2023/05/27 07:17:19;;;;;;;13.75;9.30;;;;;;;17.79;71.10;95301.84;5075504;28;20032;-77
2023/05/27 07:19:45;;;;;;;17.65;9.18;;;;;;;17.80;70.76;95316.84;5073622;28;20048;-77
2023/05/27 07:22:10;;;;;;;12.55;8.43;;;;;;;17.93;70.24;95318.59;5072971;28;20048;-77
2023/05/27 07:24:35;;;;;;;17.70;9.57;;;;;;;17.65;70.59;95321.59;5073000;28;20045;-77
2023/05/27 07:27:01;;;;;;;20.60;9.10;;;;;;;17.63;70.84;95331.81;5073200;28;20115;-77
2023/05/27 07:29:26;;;;;;;18.20;10.73;;;;;;;17.74;71.45;95327.75;5068229;28;20033;-76
2023/05/27 07:31:52;;;;;;;18.60;10.73;;;;;;;17.71;72.08;95300.75;5074030;28;20441;-76
2023/05/27 07:34:18;;;;;;;26.73;10.82;;;;;;;17.67;70.91;95291.78;5073229;28;20016;-77
2023/05/27 07:36:43;;;;;;;20.67;10.65;;;;;;;17.73;70.88;95296.66;5070227;28;20032;-77
2023/05/27 07:39:09;;;;;;;16.17;9.50;;;;;;;17.40;70.66;95252.59;5074087;28;20375;-76
2023/05/27 07:41:34;;;;;;;19.08;9.63;;;;;;;17.90;71.08;95325.38;5070436;28;20025;-77
2023/05/27 07:43:59;;;;;;;25.52;11.13;;;;;;;17.96;70.96;95299.97;5074352;28;20048;-77
2023/05/27 07:46:25;;;;;;;19.05;10.32;;;;;;;18.18;69.48;95325.06;5073084;28;20055;-77
2023/05/27 07:48:51;;;;;;;20.65;10.38;;;;;;;17.91;69.72;95310.88;5073512;28;20519;-77
2023/05/27 07:51:16;;;;;;;19.60;11.30;;;;;;;18.18;69.68;95309.75;5074373;28;20484;-76
2023/05/27 07:53:42;;;;;;;15.00;8.50;;;;;;;18.47;68.62;95311.72;5073967;28;20032;-77
2023/05/27 07:56:09;;;;;;;15.65;9.48;;;;;;;18.32;68.06;95291.53;5071694;28;20051;-76
2023/05/27 07:58:34;;;;;;;12.75;9.48;;;;;;;18.32;67.66;95282.69;5072088;28;20032;-76
2023/05/27 08:00:59;;;;;;;18.98;8.75;;;;;;;18.46;67.43;95334.34;5072846;28;20024;-77
2023/05/27 08:03:25;;;;;;;14.02;8.45;;;;;;;18.07;67.26;95311.97;5071571;28;20017;-77
2023/05/27 08:05:50;;;;;;;16.83;9.07;;;;;;;18.27;67.08;95297.09;5072336;28;20121;-77
2023/05/27 08:08:16;;;;;;;17.73;7.85;;;;;;;18.37;66.78;95287.91;5074312;28;20080;-77
2023/05/27 08:10:41;;;;;;;12.98;7.65;;;;;;;18.86;66.40;95341.03;5072509;28;20101;-77
2023/05/27 08:13:07;;;;;;;16.35;7.53;;;;;;;18.91;65.70;95323.97;5072011;28;20051;-77
2023/05/27 08:15:32;;;;;;;12.35;6.50;;;;;;;19.08;65.27;95325.78;5073668;28;20505;-77
2023/05/27 08:17:58;;;;;;;21.48;8.20;;;;;;;19.24;64.65;95330.28;5072424;28;20112;-77
2023/05/27 08:20:23;;;;;;;15.35;7.28;;;;;;;19.29;64.99;95337.41;5074178;28;20510;-77
2023/05/27 08:22:49;;;;;;;10.85;7.50;;;;;;;18.48;64.53;95189.78;5072644;28;20025;-77
2023/05/27 08:25:15;;;;;;;11.32;7.03;;;;;;;19.07;64.16;95263.16;5072506;28;20117;-77
2023/05/27 08:27:53;;;;;;;11.68;7.47;;;;;;;19.28;63.58;95284.72;5072538;28;20704;-77
2023/05/27 08:30:19;;;;;;;13.68;7.07;;;;;;;19.68;63.20;95340.84;5072297;28;20123;-77
2023/05/27 08:32:45;;;;;;;13.23;7.68;;;;;;;19.75;62.99;95338.41;5053902;28;20029;-77
2023/05/27 08:35:11;;;;;;;18.33;6.97;;;;;;;19.74;62.87;95310.72;5074127;28;20047;-77
2023/05/27 08:37:38;;;;;;;12.55;6.90;;;;;;;20.00;61.56;95337.41;5069237;28;20099;-77
2023/05/27 08:40:06;;;;;;;14.57;6.65;;;;;;;19.63;61.54;95278.03;5058504;28;20062;-77
2023/05/27 08:42:35;;;;;;;15.70;6.97;;;;;;;19.92;61.27;95317.53;5071102;28;20027;-77
2023/05/27 08:45:01;;;;;;;13.80;7.05;;;;;;;19.96;61.37;95315.78;5071809;28;20036;-77
2023/05/27 08:47:32;;;;;;;12.73;7.25;;;;;;;19.90;61.28;95302.84;5072432;28;20023;-77
2023/05/27 08:50:00;;;;;;;14.32;6.88;;;;;;;19.99;61.29;95333.16;5073061;28;20084;-77
2023/05/27 08:52:29;;;;;;;14.23;6.68;;;;;;;19.85;60.47;95316.47;5071784;28;20419;-77
2023/05/27 08:54:57;;;;;;;9.68;6.80;;;;;;;19.89;60.69;95323.59;5072198;28;20059;-77
2023/05/27 08:57:31;;;;;;;11.50;6.03;;;;;;;19.85;61.10;95319.97;5056444;28;20768;-77
2023/05/27 08:59:57;;;;;;;8.45;5.10;;;;;;;19.67;61.23;95291.63;5068157;28;20032;-77
2023/05/27 09:02:23;;;;;;;10.85;5.72;;;;;;;19.98;61.34;95334.28;5069230;28;20038;-77
2023/05/27 09:04:49;;;;;;;13.15;5.78;;;;;;;19.99;61.60;95338.53;5069838;28;20067;-76
2023/05/27 09:07:15;;;;;;;12.48;5.10;;;;;;;19.93;62.17;95318.31;5070770;28;20544;-76
2023/05/27 09:09:43;;;;;;;7.95;5.68;;;;;;;19.83;61.75;95289.91;5071315;28;20037;-77
2023/05/27 09:12:08;;;;;;;7.65;5.65;;;;;;;19.75;60.66;95287.28;5070221;28;20503;-76
2023/05/27 09:14:37;;;;;;;9.93;5.80;;;;;;;19.99;60.70;95323.16;5071706;28;20052;-76
2023/05/27 09:17:06;;;;;;;12.48;5.20;;;;;;;19.87;60.00;95308.88;5072100;28;20029;-77
2023/05/27 09:19:32;;;;;;;10.63;6.50;;;;;;;19.80;59.86;95298.63;5069516;28;20110;-76
2023/05/27 09:21:57;;;;;;;19.92;7.00;;;;;;;19.87;59.99;95306.19;5071071;28;20028;-76
2023/05/27 09:24:26;;;;;;;14.77;7.60;;;;;;;20.11;60.28;95319.75;5070665;28;20117;-77
2023/05/27 09:26:52;;;;;;;13.85;6.72;;;;;;;19.94;60.75;95288.38;5071015;28;20067;-76
2023/05/27 09:29:25;;;;;;;10.70;6.72;;;;;;;20.22;61.07;95317.44;5072337;28;20028;-77
2023/05/27 09:31:55;;;;;;;10.63;5.88;;;;;;;20.09;60.08;95294.28;5072717;28;20048;-77
2023/05/27 09:34:20;;;;;;;13.77;6.35;;;;;;;20.02;59.33;95294.81;5070815;28;20071;-77
2023/05/27 09:36:48;;;;;;;10.07;5.90;;;;;;;20.07;59.48;95288.44;5070862;28;20490;-77
2023/05/27 09:39:15;;;;;;;11.85;6.85;;;;;;;20.24;59.33;95313.31;5070917;28;20028;-77
2023/05/27 09:41:41;;;;;;;13.35;9.15;;;;;;;19.97;59.72;95278.88;5071364;28;20036;-77
2023/05/27 09:44:08;;;;;;;16.58;8.50;;;;;;;20.20;59.64;95284.69;5072527;28;20025;-77
2023/05/27 09:46:34;;;;;;;10.52;5.95;;;;;;;19.84;58.66;95210.72;5070372;28;20483;-77
2023/05/27 09:49:00;;;;;;;12.98;5.45;;;;;;;20.26;56.54;95294.13;5071919;28;20372;-77
2023/05/27 09:51:26;;;;;;;10.80;5.50;;;;;;;20.58;56.64;95311.44;5072574;28;20386;-77
2023/05/27 09:53:57;;;;;;;16.05;6.40;;;;;;;20.71;56.44;95308.41;5060696;28;20400;-77
2023/05/27 09:56:27;;;;;;;16.05;6.93;;;;;;;20.91;56.45;95306.75;5054716;28;20146;-77
2023/05/27 09:58:56;;;;;;;10.48;5.93;;;;;;;21.08;56.44;95309.25;5070437;28;20044;-77
2023/05/27 10:01:28;;;;;;;11.48;5.35;;;;;;;21.02;55.30;95275.53;5054286;28;20039;-78
2023/05/27 10:03:54;;;;;;;9.73;5.57;;;;;;;21.28;55.39;95259.06;5070470;28;20028;-77
2023/05/27 10:06:20;;;;;;;7.43;5.30;;;;;;;21.52;55.02;95298.69;5070305;28;20032;-77
2023/05/27 10:08:46;;;;;;;11.20;5.60;;;;;;;21.76;54.77;95287.06;5067676;28;20028;-77
2023/05/27 10:11:11;;;;;;;10.65;5.72;;;;;;;22.16;54.64;95301.38;5054973;28;20514;-76
2023/05/27 10:13:37;;;;;;;7.05;5.28;;;;;;;22.46;54.17;95299.09;5070671;28;20032;-76
2023/05/27 10:16:03;;;;;;;9.68;5.70;;;;;;;22.56;52.81;95265.38;5070255;28;20016;-77
2023/05/27 10:18:30;;;;;;;7.30;4.97;;;;;;;22.68;52.98;95298.50;5070905;28;20039;-77
2023/05/27 10:20:59;;;;;;;7.13;4.57;;;;;;;22.92;53.20;95297.59;5070746;28;20514;-77
2023/05/27 10:23:30;;;;;;;10.27;4.88;;;;;;;23.12;51.15;95286.84;5072266;28;20021;-77
2023/05/27 10:26:06;;;;;;;10.00;4.85;;;;;;;23.20;52.30;95294.78;5074291;28;20408;-77
2023/05/27 10:28:32;;;;;;;8.30;5.07;;;;;;;23.60;51.33;95289.16;5075354;28;20518;-77
2023/05/27 10:31:18;;;;;;;6.78;4.75;;;;;;;23.91;50.47;95285.56;5074799;28;20043;-77
2023/05/27 10:33:48;;;;;;;16.00;4.55;;;;;;;23.73;48.93;95254.63;5073507;28;20184;-77
2023/05/27 10:36:32;;;;;;;7.82;4.53;;;;;;;24.27;49.10;95287.09;5075831;28;20081;-77
2023/05/27 10:39:03;;;;;;;13.23;5.95;;;;;;;24.76;48.09;95276.41;5074792;28;20032;-77
2023/05/27 10:41:37;;;;;;;12.00;5.50;;;;;;;24.81;45.61;95262.53;5074650;28;20060;-77
2023/05/27 10:44:03;;;;;;;7.95;4.75;;;;;;;24.32;46.70;95174.94;5074608;28;20032;-77
2023/05/27 10:46:38;;;;;;;5.72;4.32;;;;;;;24.07;47.83;95161.69;5044902;28;20037;-77
2023/05/27 10:49:12;;;;;;;7.43;4.28;;;;;;;24.60;47.48;95264.88;5068869;28;20035;-77
2023/05/27 10:51:39;;;;;;;7.15;4.93;;;;;;;24.50;47.34;95271.66;5075504;28;20458;-77
2023/05/27 10:54:06;;;;;;;6.45;4.03;;;;;;;24.31;46.72;95241.91;5072935;28;20052;-78
2023/05/27 10:56:32;;;;;;;9.50;4.82;;;;;;;24.22;46.54;95235.91;5073672;28;20039;-77
2023/05/27 10:59:01;;;;;;;8.07;4.70;;;;;;;24.10;47.91;95244.97;5072724;28;20095;-77
2023/05/27 11:01:31;;;;;;;6.45;4.88;;;;;;;24.08;47.30;95251.88;5074291;28;20056;-77
2023/05/27 11:03:58;;;;;;;10.05;5.18;;;;;;;23.92;48.46;95219.44;5073907;28;20024;-78
2023/05/27 11:06:24;;;;;;;7.07;4.30;;;;;;;23.92;50.12;95253.88;5074963;28;20099;-77
2023/05/27 11:08:50;;;;;;;9.13;4.88;;;;;;;23.91;49.47;95236.03;5073196;28;20507;-77
2023/05/27 11:11:15;;;;;;;4.70;3.90;;;;;;;23.70;49.27;95209.31;5074097;28;20036;-77
2023/05/27 11:13:45;;;;;;;7.50;4.68;;;;;;;23.81;50.59;95259.06;5075356;28;20033;-77
2023/05/27 11:16:12;;;;;;;6.10;4.05;;;;;;;23.75;49.36;95231.47;5073611;28;20028;-77
2023/05/27 11:18:43;;;;;;;5.93;4.03;;;;;;;24.03;48.24;95244.03;5073160;28;20047;-77
2023/05/27 11:21:10;;;;;;;9.65;4.82;;;;;;;24.14;48.67;95232.25;5075156;28;20111;-77
2023/05/27 11:23:43;;;;;;;11.43;4.63;;;;;;;24.33;46.78;95252.38;5073589;28;20414;-77